createdAt,value
2019-01-14T00:00:04.718Z,58.83
2019-01-14T00:05:01.633Z,59.39
2019-01-14T00:09:58.578Z,59.71
2019-01-14T00:14:55.499Z,59.11
2019-01-14T00:19:52.449Z,59.17
2019-01-14T00:24:49.402Z,58.55
2019-01-14T00:29:46.343Z,57.94
2019-01-14T00:34:43.267Z,58.52
2019-01-14T00:39:40.222Z,58.34
2019-01-14T00:44:37.128Z,58.14
2019-01-14T00:49:35.314Z,57.47
2019-01-14T00:54:32.252Z,58.18
2019-01-14T00:59:29.209Z,57.72
2019-01-14T01:04:26.112Z,57.25
2019-01-14T01:09:23.082Z,56.99
2019-01-14T01:14:20.018Z,56.97
2019-01-14T01:19:16.972Z,57.02
2019-01-14T01:24:13.876Z,57.02
2019-01-14T01:29:10.821Z,58.05
2019-01-14T01:34:07.733Z,57.66
2019-01-14T01:39:06.364Z,57.83
2019-01-14T01:44:03.488Z,57.73
2019-01-14T01:49:00.843Z,58.80
2019-01-14T01:53:59.106Z,59.24
2019-01-14T01:58:56.062Z,58.04
2019-01-14T02:03:52.970Z,58.91
2019-01-14T02:08:49.935Z,60.26
2019-01-14T02:13:47.447Z,59.05
2019-01-14T02:18:44.390Z,58.85
2019-01-14T02:23:41.413Z,58.12
2019-01-14T02:28:38.359Z,59.74
2019-01-14T02:33:35.370Z,59.52
2019-01-14T02:38:32.320Z,59.43
2019-01-14T02:43:29.240Z,59.38
2019-01-14T02:48:26.363Z,59.87
2019-01-14T02:53:23.281Z,60.53
2019-01-14T02:58:21.487Z,60.71
2019-01-14T03:03:18.413Z,62.75
2019-01-14T03:08:15.360Z,63.10
2019-01-14T03:13:12.340Z,62.86
2019-01-14T03:18:09.293Z,63.01
2019-01-14T03:23:06.191Z,63.10
2019-01-14T03:28:03.169Z,62.54
2019-01-14T03:33:00.072Z,62.67
2019-01-14T03:37:57.013Z,61.64
2019-01-14T03:42:53.931Z,61.65
2019-01-14T03:47:50.893Z,60.74
2019-01-14T03:52:47.813Z,60.74
2019-01-14T03:57:44.746Z,59.87
2019-01-14T04:02:42.294Z,59.86
2019-01-14T04:07:39.256Z,59.87
2019-01-14T04:12:36.151Z,59.20
2019-01-14T04:17:34.991Z,58.29
2019-01-14T04:22:33.815Z,58.07
2019-01-14T04:27:30.757Z,58.23
2019-01-14T04:32:27.759Z,58.65
2019-01-14T04:37:24.709Z,58.28
2019-01-14T04:42:21.615Z,58.71
2019-01-14T04:47:18.575Z,59.27
2019-01-14T04:52:15.482Z,59.65
2019-01-14T04:57:12.433Z,59.81
2019-01-14T05:02:09.343Z,60.18
2019-01-14T05:07:06.329Z,60.29
2019-01-14T05:12:03.231Z,59.76
2019-01-14T05:17:00.197Z,59.38
2019-01-14T05:21:57.097Z,59.55
2019-01-14T05:26:54.062Z,59.57
2019-01-14T05:31:50.971Z,59.98
2019-01-14T05:36:47.932Z,59.29
2019-01-14T05:41:44.878Z,59.07
2019-01-14T05:46:42.150Z,59.22
2019-01-14T05:51:39.058Z,59.15
2019-01-14T05:56:36.013Z,59.96
2019-01-14T06:01:32.912Z,60.45
2019-01-14T06:06:29.867Z,60.51
2019-01-14T06:11:27.649Z,60.84
2019-01-14T06:16:24.593Z,61.35
2019-01-14T06:21:21.498Z,61.27
2019-01-14T06:26:18.569Z,61.30
2019-01-14T06:31:15.485Z,61.43
2019-01-14T06:36:12.450Z,61.80
2019-01-14T06:41:09.363Z,61.68
2019-01-14T06:46:06.325Z,61.44
2019-01-14T06:51:03.430Z,61.61
2019-01-14T06:56:00.366Z,60.79
2019-01-14T07:01:00.077Z,60.96
2019-01-14T07:05:57.025Z,60.90
2019-01-14T07:10:54.041Z,60.75
2019-01-14T07:15:51.962Z,60.65
2019-01-14T07:20:48.870Z,60.89
2019-01-14T07:25:45.932Z,61.07
2019-01-14T07:30:42.855Z,60.85
2019-01-14T07:35:39.896Z,61.08
2019-01-14T07:40:37.122Z,61.66
2019-01-14T07:45:34.061Z,61.12
2019-01-14T07:50:30.984Z,60.87
2019-01-14T07:55:27.948Z,60.56
2019-01-14T08:00:24.842Z,60.94
2019-01-14T08:05:21.799Z,61.04
2019-01-14T08:10:18.723Z,60.50
2019-01-14T08:15:18.818Z,60.60
2019-01-14T08:20:15.886Z,60.54
2019-01-14T08:25:14.144Z,60.42
2019-01-14T08:30:17.504Z,60.68
2019-01-14T08:35:14.857Z,60.93
2019-01-14T08:40:14.494Z,60.69
2019-01-14T08:45:12.819Z,60.87
2019-01-14T08:50:16.917Z,60.77
2019-01-14T08:55:13.912Z,60.55
2019-01-14T09:00:17.413Z,59.79
2019-01-14T09:05:14.871Z,60.05
2019-01-14T09:10:16.812Z,59.62
2019-01-14T09:15:16.622Z,59.48
2019-01-14T09:20:20.136Z,59.15
2019-01-14T09:25:17.147Z,59.89
2019-01-14T09:30:19.755Z,59.66
2019-01-14T09:35:16.651Z,59.27
2019-01-14T09:40:20.352Z,59.12
2019-01-14T09:45:17.240Z,59.29
2019-01-14T09:50:15.130Z,59.37
2019-01-14T09:55:14.906Z,59.56
2019-01-14T10:00:12.161Z,60.03
2019-01-14T10:05:12.327Z,59.16
2019-01-14T10:10:12.785Z,59.43
2019-01-14T10:15:13.625Z,59.28
2019-01-14T10:20:11.669Z,59.69
2019-01-14T10:25:08.726Z,59.71
2019-01-14T10:30:18.221Z,60.34
2019-01-14T10:35:15.120Z,61.13
2019-01-14T10:40:15.183Z,60.61
2019-01-14T10:45:21.446Z,60.47
2019-01-14T10:50:19.064Z,60.87
2019-01-14T10:55:16.885Z,60.71
2019-01-14T11:00:21.247Z,61.00
2019-01-14T11:05:23.113Z,60.38
2019-01-14T11:10:20.251Z,57.41
2019-01-14T11:15:19.790Z,57.15
2019-01-14T11:20:26.700Z,58.11
2019-01-14T11:25:24.483Z,60.30
2019-01-14T11:30:28.863Z,61.05
2019-01-14T11:35:25.767Z,59.88
2019-01-14T11:40:26.769Z,58.52
2019-01-14T11:45:23.671Z,57.04
2019-01-14T11:50:20.637Z,55.58
2019-01-14T11:55:17.530Z,55.69
2019-01-14T12:00:23.766Z,54.81
2019-01-14T12:05:21.187Z,54.66
2019-01-14T12:10:18.221Z,56.01
2019-01-14T12:15:22.045Z,58.41
2019-01-14T12:20:20.083Z,59.28
2019-01-14T12:25:17.218Z,59.46
2019-01-14T12:30:36.444Z,59.18
2019-01-14T12:35:33.367Z,59.34
2019-01-14T12:40:30.356Z,58.27
2019-01-14T12:45:27.614Z,56.98
2019-01-14T12:50:24.861Z,56.46
2019-01-14T12:55:21.764Z,55.51
2019-01-14T13:00:27.311Z,54.95
2019-01-14T13:05:26.315Z,53.17
2019-01-14T13:10:23.258Z,53.64
2019-01-14T13:15:25.417Z,52.03
2019-01-14T13:20:22.655Z,50.70
2019-01-14T13:25:19.661Z,50.50
2019-01-14T13:30:24.042Z,51.68
2019-01-14T13:35:20.945Z,51.88
2019-01-14T13:40:17.941Z,52.33
2019-01-14T13:45:18.646Z,52.15
2019-01-14T13:50:24.400Z,53.75
2019-01-14T13:55:21.413Z,55.06
2019-01-14T14:00:23.714Z,62.17
2019-01-14T14:05:20.742Z,62.82
2019-01-14T14:10:24.092Z,61.84
2019-01-14T14:15:21.493Z,63.03
2019-01-14T14:20:18.961Z,62.87
2019-01-14T14:25:16.093Z,61.89
2019-01-14T14:30:29.287Z,62.52
2019-01-14T14:35:26.377Z,62.63
2019-01-14T14:40:23.611Z,61.60
2019-01-14T14:45:22.510Z,61.68
2019-01-14T14:50:20.379Z,61.19
2019-01-14T14:55:17.604Z,60.98
2019-01-14T15:00:17.921Z,60.01
2019-01-14T15:05:15.371Z,58.87
2019-01-14T15:10:15.780Z,59.52
2019-01-14T15:15:16.540Z,59.11
2019-01-14T15:20:16.398Z,59.27
2019-01-14T15:25:13.527Z,59.00
2019-01-14T15:30:18.311Z,58.51
2019-01-14T15:35:16.560Z,58.34
2019-01-14T15:40:16.858Z,56.96
2019-01-14T15:45:16.765Z,56.93
2019-01-14T15:50:13.733Z,56.71
2019-01-14T15:55:16.264Z,56.79
2019-01-14T16:00:17.233Z,56.91
2019-01-14T16:05:16.445Z,56.50
2019-01-14T16:10:16.709Z,56.57
2019-01-14T16:15:13.878Z,57.08
2019-01-14T16:20:14.732Z,57.14
2019-01-14T16:25:11.746Z,56.97
2019-01-14T16:30:24.367Z,55.22
2019-01-14T16:35:21.536Z,54.84
2019-01-14T16:40:18.566Z,55.58
2019-01-14T16:45:19.552Z,55.21
2019-01-14T16:50:17.124Z,55.06
2019-01-14T16:55:15.869Z,54.48
2019-01-14T17:00:16.448Z,54.21
2019-01-14T17:05:14.470Z,54.37
2019-01-14T17:10:14.116Z,54.23
2019-01-14T17:15:11.331Z,55.28
2019-01-14T17:20:19.326Z,56.94
2019-01-14T17:25:16.373Z,58.03
2019-01-14T17:30:16.515Z,57.93
2019-01-14T17:35:14.271Z,57.45
2019-01-14T17:40:15.634Z,57.18
2019-01-14T17:45:12.896Z,56.46
2019-01-14T17:50:13.502Z,56.92
2019-01-14T17:55:10.582Z,56.36
2019-01-14T18:00:19.393Z,57.85
2019-01-14T18:05:16.395Z,58.20
2019-01-14T18:10:18.972Z,57.72
2019-01-14T18:15:16.197Z,58.28
2019-01-14T18:20:15.971Z,58.21
2019-01-14T18:25:14.150Z,57.35
2019-01-14T18:30:17.936Z,56.66
2019-01-14T18:35:16.972Z,57.22
2019-01-14T18:40:16.014Z,56.46
2019-01-14T18:45:15.620Z,56.51
2019-01-14T18:50:15.979Z,56.29
2019-01-14T18:55:13.144Z,56.43
2019-01-14T19:00:16.918Z,56.58
2019-01-14T19:05:14.006Z,57.58
2019-01-14T19:10:12.673Z,57.09
2019-01-14T19:15:16.746Z,56.54
2019-01-14T19:20:23.273Z,55.76
2019-01-14T19:25:20.371Z,54.93
2019-01-14T19:30:21.269Z,54.25
2019-01-14T19:35:18.568Z,54.72
2019-01-14T19:40:18.076Z,54.71
2019-01-14T19:45:18.457Z,53.98
2019-01-14T19:50:18.722Z,53.92
2019-01-14T19:55:15.791Z,53.49
2019-01-14T20:00:25.289Z,52.93
2019-01-14T20:05:22.212Z,53.32
2019-01-14T20:10:19.221Z,53.37
2019-01-14T20:15:19.805Z,53.50
2019-01-14T20:20:17.002Z,53.47
2019-01-14T20:25:14.259Z,53.04
2019-01-14T20:30:19.108Z,52.80
2019-01-14T20:35:16.685Z,52.58
2019-01-14T20:40:15.389Z,52.32
2019-01-14T20:45:15.118Z,52.06
2019-01-14T20:50:15.341Z,51.96
2019-01-14T20:55:12.666Z,52.17
2019-01-14T21:00:17.115Z,52.28
2019-01-14T21:05:14.375Z,53.16
2019-01-14T21:10:14.511Z,52.82
2019-01-14T21:15:11.669Z,52.61
2019-01-14T21:20:22.947Z,53.25
2019-01-14T21:25:21.842Z,53.23
2019-01-14T21:30:21.911Z,52.56
2019-01-14T21:35:18.928Z,52.86
2019-01-14T21:40:16.078Z,52.86
2019-01-14T21:45:14.220Z,53.32
2019-01-14T21:50:16.924Z,53.26
2019-01-14T21:55:19.831Z,53.13
2019-01-14T22:00:21.729Z,52.56
2019-01-14T22:05:18.958Z,53.17
2019-01-14T22:10:22.950Z,52.37
2019-01-14T22:15:19.848Z,52.57
2019-01-14T22:20:23.358Z,51.51
2019-01-14T22:25:20.360Z,52.52
2019-01-14T22:30:26.906Z,51.89
2019-01-14T22:35:23.801Z,53.02
2019-01-14T22:40:21.652Z,53.03
2019-01-14T22:45:18.569Z,53.24
2019-01-14T22:50:17.721Z,53.40
2019-01-14T22:55:14.643Z,53.32
2019-01-14T23:00:55.877Z,53.68
2019-01-14T23:05:52.791Z,53.62
2019-01-14T23:10:50.903Z,54.08
2019-01-14T23:15:47.913Z,53.98
2019-01-14T23:20:44.867Z,54.38
2019-01-14T23:25:41.767Z,54.40
2019-01-14T23:30:39.196Z,54.13
2019-01-14T23:35:36.141Z,54.21
2019-01-14T23:40:33.549Z,54.28
2019-01-14T23:45:30.474Z,53.98
2019-01-14T23:50:28.062Z,53.51
2019-01-14T23:55:24.962Z,53.04
